Time;durP1;ratioP1;P1;durP2;ratioP2;P2;SDS_P1;SDS_P2;PMS_P1;PMS_P2;Temp;Humidity;BMP_temperature;BMP_pressure;BME280_temperature;BME280_humidity;BME280_pressure;Samples;Min_cycle;Max_cycle;Signal;HPM_P1;HPM_P2
2023/05/08 00:02:05;;;;;;;12.25;4.88;;;;;;;;;;5031147;28;20476;-61
2023/05/08 00:04:30;;;;;;;7.40;4.10;;;;;;;;;;5030333;28;20049;-62
2023/05/08 00:06:56;;;;;;;7.88;4.32;;;;;;;;;;5031164;28;20041;-63
2023/05/08 00:09:21;;;;;;;10.52;4.53;;;;;;;;;;5031084;28;20096;-63
2023/05/08 00:11:46;;;;;;;9.88;4.80;;;;;;;;;;5031721;28;20021;-60
2023/05/08 00:14:11;;;;;;;7.22;4.35;;;;;;;;;;5032026;28;20029;-64
2023/05/08 00:16:37;;;;;;;9.68;5.13;;;;;;;;;;5031584;28;20021;-63
2023/05/08 00:19:02;;;;;;;9.50;5.38;;;;;;;;;;5040245;23;20060;-70
2023/05/08 00:21:28;;;;;;;8.93;4.80;;;;;;;;;;5015921;28;20037;-70
2023/05/08 00:23:53;;;;;;;10.40;4.53;;;;;;;;;;5015312;28;20086;-71
2023/05/08 00:26:19;;;;;;;12.85;4.70;;;;;;;;;;5007872;28;20025;-70
2023/05/08 00:28:44;;;;;;;9.00;4.95;;;;;;;;;;5021037;28;20025;-67
2023/05/08 00:31:10;;;;;;;7.95;4.35;;;;;;;;;;5016481;28;20415;-72
2023/05/08 00:33:36;;;;;;;10.02;4.50;;;;;;;;;;5015517;28;20554;-70
2023/05/08 00:36:01;;;;;;;9.70;4.90;;;;;;;;;;5021729;28;20395;-71
2023/05/08 00:38:29;;;;;;;9.63;4.82;;;;;;;;;;5008997;28;20022;-70
2023/05/08 00:40:54;;;;;;;7.97;4.07;;;;;;;;;;4996048;28;20472;-71
2023/05/08 00:43:24;;;;;;;8.80;5.00;;;;;;;;;;5008963;28;20022;-71
2023/05/08 00:45:49;;;;;;;9.50;4.57;;;;;;;;;;5008493;28;20128;-70
2023/05/08 00:48:15;;;;;;;11.68;5.03;;;;;;;;;;4995481;28;20042;-67
2023/05/08 00:50:40;;;;;;;7.55;4.72;;;;;;;;;;5007279;28;20030;-72
2023/05/08 00:53:05;;;;;;;7.25;4.40;;;;;;;;;;5009206;28;20168;-71
2023/05/08 00:55:31;;;;;;;8.60;4.63;;;;;;;;;;5009205;28;20482;-71
2023/05/08 00:57:57;;;;;;;9.32;4.80;;;;;;;;;;5008997;28;20030;-68
2023/05/08 01:00:22;;;;;;;10.80;5.30;;;;;;;;;;5008761;28;20025;-72
2023/05/08 01:02:47;;;;;;;8.88;4.57;;;;;;;;;;5021487;28;20041;-72
2023/05/08 01:05:13;;;;;;;20.17;5.03;;;;;;;;;;5010148;28;20033;-68
2023/05/08 01:07:38;;;;;;;8.05;4.75;;;;;;;;;;5008434;28;20033;-72
2023/05/08 01:10:04;;;;;;;7.82;4.82;;;;;;;;;;5008476;28;20009;-70
2023/05/08 01:12:35;;;;;;;9.50;5.30;;;;;;;;;;5008773;28;20515;-72
2023/05/08 01:15:03;;;;;;;10.93;5.50;;;;;;;;;;5008536;28;20033;-72
2023/05/08 01:17:29;;;;;;;10.27;5.10;;;;;;;;;;5009546;28;20029;-72
2023/05/08 01:20:14;;;;;;;8.50;4.53;;;;;;;;;;5027378;28;20026;-70
2023/05/08 01:23:14;;;;;;;9.52;5.05;;;;;;;;;;5011571;28;20026;-72
2023/05/08 01:25:51;;;;;;;10.43;4.75;;;;;;;;;;4985553;28;20121;-70
2023/05/08 01:28:19;;;;;;;9.57;4.30;;;;;;;;;;5005213;28;20112;-71
2023/05/08 01:30:47;;;;;;;11.68;5.72;;;;;;;;;;5008329;28;20552;-70
2023/05/08 01:33:18;;;;;;;8.23;4.65;;;;;;;;;;5008382;28;20033;-69
2023/05/08 01:35:45;;;;;;;11.27;5.10;;;;;;;;;;5020969;28;20501;-69
2023/05/08 01:38:31;;;;;;;9.15;4.95;;;;;;;;;;5008483;28;20584;-71
2023/05/08 01:41:05;;;;;;;11.32;5.50;;;;;;;;;;5003176;28;20030;-68
2023/05/08 01:43:47;;;;;;;11.00;5.22;;;;;;;;;;5014817;28;20125;-68
2023/05/08 01:46:15;;;;;;;14.30;5.40;;;;;;;;;;5015699;28;20006;-71
2023/05/08 01:48:46;;;;;;;8.83;5.13;;;;;;;;;;4991889;28;20072;-71
2023/05/08 01:51:15;;;;;;;10.15;5.72;;;;;;;;;;5002096;28;20333;-68
2023/05/08 01:53:42;;;;;;;8.65;4.88;;;;;;;;;;5008187;28;20440;-68
2023/05/08 01:56:16;;;;;;;10.40;5.22;;;;;;;;;;5008438;28;20442;-71
2023/05/08 01:58:42;;;;;;;8.85;5.07;;;;;;;;;;5008502;28;20580;-70
2023/05/08 02:01:07;;;;;;;9.88;5.13;;;;;;;;;;5008758;28;20026;-71
2023/05/08 02:03:33;;;;;;;9.98;5.22;;;;;;;;;;5005106;28;20757;-69
2023/05/08 02:05:59;;;;;;;9.93;4.90;;;;;;;;;;5016604;28;20116;-71
2023/05/08 02:08:26;;;;;;;9.40;5.40;;;;;;;;;;5005510;28;20378;-68
2023/05/08 02:10:52;;;;;;;13.90;5.88;;;;;;;;;;5018440;28;20097;-73
2023/05/08 02:13:19;;;;;;;8.38;5.18;;;;;;;;;;5011788;28;20080;-71
2023/05/08 02:15:46;;;;;;;10.25;5.20;;;;;;;;;;5010258;28;20024;-72
2023/05/08 02:18:12;;;;;;;8.30;5.10;;;;;;;;;;5018498;28;20029;-73
2023/05/08 02:20:38;;;;;;;14.20;5.70;;;;;;;;;;5026321;28;20032;-71
2023/05/08 02:23:03;;;;;;;13.25;5.45;;;;;;;;;;4999118;28;20022;-66
2023/05/08 02:25:29;;;;;;;13.23;5.10;;;;;;;;;;5011803;28;20024;-70
2023/05/08 02:27:55;;;;;;;10.57;5.78;;;;;;;;;;5011634;28;20376;-69
2023/05/08 02:30:22;;;;;;;11.95;5.68;;;;;;;;;;5011493;28;20018;-69
2023/05/08 02:32:47;;;;;;;10.07;5.65;;;;;;;;;;4998317;28;20014;-70
2023/05/08 02:35:14;;;;;;;18.33;5.72;;;;;;;;;;5015717;28;20074;-67
2023/05/08 02:37:41;;;;;;;9.00;5.50;;;;;;;;;;5016620;28;20160;-68
2023/05/08 02:40:07;;;;;;;10.18;5.80;;;;;;;;;;5018090;28;20124;-68
2023/05/08 02:42:32;;;;;;;9.93;5.35;;;;;;;;;;5023894;28;20391;-68
2023/05/08 02:44:58;;;;;;;10.73;6.28;;;;;;;;;;5024704;28;20444;-70
2023/05/08 02:47:28;;;;;;;9.63;5.43;;;;;;;;;;4994767;28;20057;-69
2023/05/08 02:49:55;;;;;;;12.15;6.25;;;;;;;;;;4998466;28;20068;-68
2023/05/08 02:52:31;;;;;;;8.93;5.13;;;;;;;;;;5020191;28;20136;-70
2023/05/08 02:55:03;;;;;;;10.27;5.65;;;;;;;;;;5015844;28;20151;-68
2023/05/08 02:57:31;;;;;;;9.98;5.43;;;;;;;;;;5011479;28;20049;-70
2023/05/08 03:00:02;;;;;;;12.10;6.15;;;;;;;;;;5024834;28;20101;-70
2023/05/08 03:02:32;;;;;;;11.48;5.85;;;;;;;;;;5020320;28;20626;-72
2023/05/08 03:05:02;;;;;;;17.58;6.72;;;;;;;;;;5011529;28;20018;-69
2023/05/08 03:07:27;;;;;;;14.57;6.55;;;;;;;;;;5019158;28;20026;-69
2023/05/08 03:10:04;;;;;;;11.02;6.55;;;;;;;;;;5011218;28;20018;-70
2023/05/08 03:12:31;;;;;;;10.80;6.20;;;;;;;;;;5011167;28;20029;-70
2023/05/08 03:15:03;;;;;;;10.48;6.18;;;;;;;;;;5010305;28;20345;-70
2023/05/08 03:17:30;;;;;;;9.52;6.13;;;;;;;;;;5010386;28;20041;-71
2023/05/08 03:19:56;;;;;;;11.68;6.35;;;;;;;;;;5010421;28;20087;-71
2023/05/08 03:22:22;;;;;;;10.10;5.68;;;;;;;;;;5016000;28;20524;-70
2023/05/08 03:24:48;;;;;;;12.70;6.28;;;;;;;;;;5010478;28;20018;-71
2023/05/08 03:27:15;;;;;;;12.27;6.45;;;;;;;;;;5010654;28;20457;-71
2023/05/08 03:29:40;;;;;;;11.75;6.55;;;;;;;;;;5018614;28;20018;-72
2023/05/08 03:32:06;;;;;;;14.07;5.85;;;;;;;;;;5016223;28;20017;-73
2023/05/08 03:34:32;;;;;;;16.23;6.10;;;;;;;;;;5010817;28;20046;-72
2023/05/08 03:36:58;;;;;;;16.90;5.97;;;;;;;;;;5012137;28;20043;-72
2023/05/08 03:39:24;;;;;;;17.40;6.07;;;;;;;;;;5010612;28;20098;-72
2023/05/08 03:41:50;;;;;;;9.20;5.53;;;;;;;;;;5024519;28;20017;-71
2023/05/08 03:44:16;;;;;;;11.52;6.40;;;;;;;;;;5011309;28;20109;-72
2023/05/08 03:46:41;;;;;;;12.43;5.95;;;;;;;;;;5009384;28;20018;-68
2023/05/08 03:49:07;;;;;;;11.73;6.47;;;;;;;;;;4993320;28;20487;-70
2023/05/08 03:51:33;;;;;;;10.65;6.32;;;;;;;;;;5015359;28;20082;-68
2023/05/08 03:53:58;;;;;;;8.73;5.80;;;;;;;;;;5009886;28;20490;-70
2023/05/08 03:56:23;;;;;;;11.90;7.25;;;;;;;;;;5010095;28;20036;-71
2023/05/08 03:59:09;;;;;;;12.88;6.60;;;;;;;;;;5022744;28;20036;-68
2023/05/08 04:01:39;;;;;;;16.17;7.25;;;;;;;;;;5009740;28;20018;-70
2023/05/08 04:04:16;;;;;;;12.32;6.40;;;;;;;;;;5013004;28;20110;-69
2023/05/08 04:06:54;;;;;;;11.95;6.30;;;;;;;;;;5017371;28;20136;-71
2023/05/08 04:09:19;;;;;;;13.55;6.60;;;;;;;;;;5017659;28;20507;-71
2023/05/08 04:12:10;;;;;;;12.98;6.03;;;;;;;;;;5010277;28;20040;-67
2023/05/08 04:15:14;;;;;;;16.85;6.60;;;;;;;;;;5032274;28;20112;-72
2023/05/08 04:17:42;;;;;;;12.02;6.15;;;;;;;;;;4992316;28;20034;-72
2023/05/08 04:20:11;;;;;;;12.38;6.68;;;;;;;;;;4971181;28;20076;-72
2023/05/08 04:22:37;;;;;;;10.25;5.75;;;;;;;;;;4976920;28;20058;-69
2023/05/08 04:25:05;;;;;;;14.00;7.57;;;;;;;;;;4994660;28;20045;-70
2023/05/08 04:27:31;;;;;;;11.77;6.32;;;;;;;;;;4991807;28;20522;-71
2023/05/08 04:29:56;;;;;;;11.93;6.35;;;;;;;;;;5003136;28;20042;-70
2023/05/08 04:32:22;;;;;;;11.63;6.13;;;;;;;;;;4964936;28;20567;-71
2023/05/08 04:34:48;;;;;;;16.20;7.05;;;;;;;;;;4994043;28;20097;-73
2023/05/08 04:37:27;;;;;;;10.45;6.28;;;;;;;;;;4969853;28;20049;-68
2023/05/08 04:39:52;;;;;;;11.65;6.53;;;;;;;;;;4985596;28;20034;-69
2023/05/08 04:42:17;;;;;;;14.57;6.72;;;;;;;;;;4985996;28;20033;-72
2023/05/08 04:44:43;;;;;;;10.70;6.93;;;;;;;;;;4997303;28;20026;-70
2023/05/08 04:47:08;;;;;;;15.43;6.55;;;;;;;;;;4962379;28;20153;-70
2023/05/08 04:49:33;;;;;;;12.13;6.93;;;;;;;;;;5001921;28;20029;-71
2023/05/08 04:51:59;;;;;;;12.52;6.90;;;;;;;;;;5020742;28;20506;-69
2023/05/08 04:54:24;;;;;;;13.45;7.90;;;;;;;;;;5010029;28;20109;-69
2023/05/08 04:56:49;;;;;;;13.75;6.53;;;;;;;;;;5011483;28;20097;-69
2023/05/08 04:59:15;;;;;;;13.57;6.78;;;;;;;;;;5008888;28;20022;-69
2023/05/08 05:01:40;;;;;;;12.02;6.18;;;;;;;;;;5011622;28;20022;-72
2023/05/08 05:04:06;;;;;;;12.88;7.00;;;;;;;;;;5012677;28;20046;-70
2023/05/08 05:06:32;;;;;;;14.20;7.22;;;;;;;;;;5016468;28;20123;-73
2023/05/08 05:08:57;;;;;;;13.75;7.15;;;;;;;;;;5012127;28;20030;-72
2023/05/08 05:11:22;;;;;;;11.55;6.68;;;;;;;;;;5002750;28;20025;-71
2023/05/08 05:13:48;;;;;;;18.52;7.13;;;;;;;;;;5008418;28;20113;-71
2023/05/08 05:16:16;;;;;;;14.38;7.78;;;;;;;;;;5008534;28;20105;-70
2023/05/08 05:18:41;;;;;;;12.93;7.35;;;;;;;;;;5007364;28;20053;-70
2023/05/08 05:21:06;;;;;;;10.18;5.82;;;;;;;;;;5010534;28;20675;-71
2023/05/08 05:23:31;;;;;;;10.55;6.45;;;;;;;;;;5010016;28;20087;-67
2023/05/08 05:25:57;;;;;;;11.43;6.93;;;;;;;;;;5009285;28;20105;-69
2023/05/08 05:28:22;;;;;;;13.10;7.18;;;;;;;;;;5007966;28;20076;-69
2023/05/08 05:30:47;;;;;;;12.30;7.65;;;;;;;;;;5021316;28;20503;-70
2023/05/08 05:33:13;;;;;;;11.23;6.82;;;;;;;;;;5007748;28;20025;-65
2023/05/08 05:35:38;;;;;;;12.55;7.28;;;;;;;;;;5009228;28;20018;-69
2023/05/08 05:38:04;;;;;;;14.10;7.85;;;;;;;;;;5010600;28;20033;-66
2023/05/08 05:40:29;;;;;;;22.08;8.88;;;;;;;;;;5012191;28;20110;-64
2023/05/08 05:42:54;;;;;;;12.55;6.38;;;;;;;;;;5014388;28;20025;-68
2023/05/08 05:45:20;;;;;;;16.85;7.15;;;;;;;;;;5023464;28;20042;-68
2023/05/08 05:47:48;;;;;;;12.05;6.55;;;;;;;;;;5013174;28;20045;-65
2023/05/08 05:50:14;;;;;;;12.50;7.10;;;;;;;;;;5012665;28;20022;-65
2023/05/08 05:52:40;;;;;;;17.05;7.65;;;;;;;;;;5015514;28;20110;-69
2023/05/08 05:55:05;;;;;;;12.25;6.82;;;;;;;;;;5012035;28;20363;-68
2023/05/08 05:57:31;;;;;;;11.25;6.82;;;;;;;;;;5011468;28;20420;-69
2023/05/08 05:59:56;;;;;;;19.95;7.00;;;;;;;;;;5012326;28;20106;-67
2023/05/08 06:02:21;;;;;;;13.10;6.88;;;;;;;;;;5012229;28;20463;-68
2023/05/08 06:04:48;;;;;;;17.08;6.53;;;;;;;;;;5021031;28;20076;-67
2023/05/08 06:07:14;;;;;;;13.77;6.68;;;;;;;;;;5020394;28;20018;-68
2023/05/08 06:09:39;;;;;;;14.32;6.30;;;;;;;;;;5012610;28;20017;-68
2023/05/08 06:12:05;;;;;;;15.02;6.78;;;;;;;;;;5012439;28;20018;-66
2023/05/08 06:14:30;;;;;;;21.92;7.68;;;;;;;;;;5010973;28;20036;-68
2023/05/08 06:16:56;;;;;;;12.50;6.55;;;;;;;;;;5011683;28;20017;-66
2023/05/08 06:19:41;;;;;;;12.27;7.05;;;;;;;;;;5027002;23;20497;-89
2023/05/08 06:22:31;;;;;;;16.75;7.45;;;;;;;;;;5025960;28;20045;-91
2023/05/08 06:27:56;;;;;;;12.05;6.35;;;;;;;;;;5037547;28;20053;-92
2023/05/08 06:36:46;;;;;;;14.48;6.10;;;;;;;;;;5023516;28;20117;-92
2023/05/08 06:39:31;;;;;;;23.70;6.90;;;;;;;;;;5025893;28;20033;-93
2023/05/08 06:48:01;;;;;;;12.90;6.70;;;;;;;;;;5005386;28;20152;-91
2023/05/08 06:50:44;;;;;;;12.77;5.95;;;;;;;;;;4988909;28;20053;-92
2023/05/08 06:53:32;;;;;;;18.92;6.72;;;;;;;;;;5009264;28;20105;-94
2023/05/08 06:56:00;;;;;;;11.65;6.15;;;;;;;;;;5007871;28;20026;-92
2023/05/08 06:58:25;;;;;;;15.80;6.00;;;;;;;;;;5013982;23;20038;-63
2023/05/08 07:00:50;;;;;;;15.02;6.10;;;;;;;;;;5031900;28;20230;-63
2023/05/08 07:03:15;;;;;;;12.63;6.35;;;;;;;;;;5026922;28;20017;-64
2023/05/08 07:05:41;;;;;;;13.68;5.82;;;;;;;;;;5024711;28;20025;-63
2023/05/08 07:08:06;;;;;;;20.23;6.53;;;;;;;;;;5029101;28;20022;-63
2023/05/08 07:10:31;;;;;;;10.50;5.90;;;;;;;;;;5028067;28;20051;-62
2023/05/08 07:12:57;;;;;;;9.80;6.18;;;;;;;;;;5030841;28;20067;-63
2023/05/08 07:15:22;;;;;;;12.45;5.88;;;;;;;;;;5031456;28;20018;-64
2023/05/08 07:17:47;;;;;;;11.48;5.78;;;;;;;;;;5023791;28;20025;-65
2023/05/08 07:20:13;;;;;;;10.70;5.90;;;;;;;;;;5031643;28;20027;-64
2023/05/08 07:22:38;;;;;;;10.05;5.53;;;;;;;;;;5019369;28;20112;-62
2023/05/08 07:25:04;;;;;;;9.32;5.55;;;;;;;;;;5022929;28;20467;-62
2023/05/08 07:27:29;;;;;;;9.38;6.00;;;;;;;;;;5029283;28;20537;-64
2023/05/08 07:29:56;;;;;;;12.93;5.60;;;;;;;;;;5024120;28;20075;-65
2023/05/08 07:32:21;;;;;;;16.30;6.40;;;;;;;;;;5024579;28;20035;-64
2023/05/08 07:34:46;;;;;;;10.10;5.70;;;;;;;;;;5022002;28;20126;-63
2023/05/08 07:37:12;;;;;;;11.70;5.70;;;;;;;;;;5023184;28;20068;-64
2023/05/08 07:39:37;;;;;;;9.77;5.63;;;;;;;;;;5030308;28;20543;-64
2023/05/08 07:42:02;;;;;;;12.90;6.20;;;;;;;;;;5026683;28;20494;-60
2023/05/08 07:44:30;;;;;;;10.77;6.20;;;;;;;;;;5030009;28;20030;-64
2023/05/08 07:46:55;;;;;;;10.25;5.63;;;;;;;;;;5025720;28;20636;-63
2023/05/08 07:49:20;;;;;;;16.35;5.47;;;;;;;;;;5030816;28;20017;-63
2023/05/08 07:51:45;;;;;;;11.38;6.40;;;;;;;;;;5028201;28;20029;-64
2023/05/08 07:54:10;;;;;;;9.75;4.80;;;;;;;;;;5030808;28;20032;-64
2023/05/08 07:56:36;;;;;;;10.75;5.70;;;;;;;;;;5024337;28;20112;-64
2023/05/08 07:59:01;;;;;;;9.05;5.13;;;;;;;;;;5021965;28;20044;-64
2023/05/08 08:01:26;;;;;;;14.07;5.63;;;;;;;;;;5020643;28;20530;-63
2023/05/08 08:03:53;;;;;;;9.07;5.25;;;;;;;;;;5030125;28;20043;-59
2023/05/08 08:06:18;;;;;;;20.48;6.20;;;;;;;;;;5030903;28;20017;-64
2023/05/08 08:08:43;;;;;;;18.77;6.22;;;;;;;;;;5030221;28;20475;-64
2023/05/08 08:11:08;;;;;;;8.52;5.22;;;;;;;;;;5030973;28;20021;-64
2023/05/08 08:13:34;;;;;;;10.07;5.45;;;;;;;;;;5030508;28;20637;-63
2023/05/08 08:15:59;;;;;;;10.27;6.03;;;;;;;;;;5030646;28;20029;-64
2023/05/08 08:18:25;;;;;;;8.63;5.22;;;;;;;;;;5031126;28;20021;-64
2023/05/08 08:20:50;;;;;;;14.73;6.53;;;;;;;;;;5030550;28;20025;-64
2023/05/08 08:23:15;;;;;;;13.90;4.95;;;;;;;;;;5029884;28;20546;-65
2023/05/08 08:25:41;;;;;;;8.60;5.28;;;;;;;;;;5030476;28;20612;-61
2023/05/08 08:28:06;;;;;;;9.98;5.13;;;;;;;;;;5030802;28;20033;-62
2023/05/08 08:30:31;;;;;;;16.88;5.55;;;;;;;;;;5030809;28;20068;-62
2023/05/08 08:33:00;;;;;;;11.95;5.70;;;;;;;;;;5029760;28;20035;-65
2023/05/08 08:35:28;;;;;;;;;;;;;;;;;;5030593;28;20491;-64
2023/05/08 08:37:53;;;;;;;11.32;6.18;;;;;;;;;;5028529;28;19909;-64
2023/05/08 08:40:18;;;;;;;13.68;5.53;;;;;;;;;;5030466;28;20021;-59
2023/05/08 08:42:44;;;;;;;8.30;5.13;;;;;;;;;;5030580;28;20479;-65
2023/05/08 08:45:09;;;;;;;10.48;6.03;;;;;;;;;;5029903;28;20490;-63
2023/05/08 08:47:36;;;;;;;10.73;5.93;;;;;;;;;;5028840;28;20103;-63
2023/05/08 08:50:02;;;;;;;9.70;5.45;;;;;;;;;;5026407;28;20415;-62
2023/05/08 08:52:36;;;;;;;10.63;5.35;;;;;;;;;;5029700;28;20091;-63
2023/05/08 08:55:03;;;;;;;15.68;5.72;;;;;;;;;;5030041;28;20104;-60
2023/05/08 08:57:32;;;;;;;9.85;5.63;;;;;;;;;;5030174;28;20505;-65
2023/05/08 08:59:58;;;;;;;11.73;6.30;;;;;;;;;;5027110;28;20124;-64
2023/05/08 09:02:24;;;;;;;12.15;6.22;;;;;;;;;;5030109;28;20159;-63
2023/05/08 09:04:50;;;;;;;10.88;6.10;;;;;;;;;;5029509;28;20028;-61
2023/05/08 09:07:16;;;;;;;9.70;5.85;;;;;;;;;;5029749;28;20013;-63
2023/05/08 09:09:43;;;;;;;10.00;5.97;;;;;;;;;;5029748;28;20102;-61
2023/05/08 09:12:08;;;;;;;10.25;5.93;;;;;;;;;;5027883;28;20501;-63
2023/05/08 09:14:33;;;;;;;10.07;6.40;;;;;;;;;;5029235;28;20034;-64
2023/05/08 09:16:59;;;;;;;10.23;6.25;;;;;;;;;;5029943;28;20597;-65
2023/05/08 09:19:25;;;;;;;11.10;6.22;;;;;;;;;;5030018;28;20486;-64
2023/05/08 09:21:50;;;;;;;14.63;6.88;;;;;;;;;;5030137;28;20434;-66
2023/05/08 09:24:16;;;;;;;11.93;5.97;;;;;;;;;;5029759;28;20037;-65
2023/05/08 09:26:41;;;;;;;11.77;6.18;;;;;;;;;;5030068;28;20013;-64
2023/05/08 09:29:09;;;;;;;8.32;4.93;;;;;;;;;;5028463;28;20105;-64
2023/05/08 09:31:35;;;;;;;12.45;6.05;;;;;;;;;;5029483;28;20490;-65
2023/05/08 09:34:01;;;;;;;12.07;6.18;;;;;;;;;;5029259;28;20052;-63
2023/05/08 09:36:30;;;;;;;9.90;5.88;;;;;;;;;;5029438;28;20029;-64
2023/05/08 09:38:56;;;;;;;10.85;5.43;;;;;;;;;;5028904;28;20029;-64
2023/05/08 09:41:22;;;;;;;8.90;5.60;;;;;;;;;;5029244;28;20505;-63
2023/05/08 09:44:04;;;;;;;22.35;6.10;;;;;;;;;;5029132;28;20632;-65
2023/05/08 09:46:30;;;;;;;10.35;5.03;;;;;;;;;;5028813;28;20160;-64
2023/05/08 09:48:57;;;;;;;9.65;5.55;;;;;;;;;;5029107;28;20017;-64
2023/05/08 09:51:22;;;;;;;11.55;5.75;;;;;;;;;;5025936;28;20415;-62
2023/05/08 09:53:52;;;;;;;9.82;5.28;;;;;;;;;;5028626;28;20026;-65
2023/05/08 09:56:30;;;;;;;8.85;5.00;;;;;;;;;;5027697;28;20025;-65
2023/05/08 09:58:55;;;;;;;9.88;5.50;;;;;;;;;;5017777;28;20037;-65
2023/05/08 10:01:27;;;;;;;11.55;5.25;;;;;;;;;;5029093;28;20064;-65
2023/05/08 10:03:52;;;;;;;9.15;5.55;;;;;;;;;;5029634;28;20024;-65
2023/05/08 10:06:17;;;;;;;11.55;4.68;;;;;;;;;;5029462;28;20025;-65
2023/05/08 10:08:43;;;;;;;9.55;5.05;;;;;;;;;;5029411;28;20017;-65
2023/05/08 10:11:12;;;;;;;13.30;4.85;;;;;;;;;;5030094;28;20438;-67
2023/05/08 10:13:37;;;;;;;;;;;;;;;;;;5030381;28;20014;-65
2023/05/08 10:16:03;;;;;;;10.57;4.60;;;;;;;;;;5029433;28;19954;-64
2023/05/08 10:18:29;;;;;;;7.65;4.18;;;;;;;;;;5027962;28;20034;-65
2023/05/08 10:20:54;;;;;;;11.43;4.75;;;;;;;;;;5028936;28;20026;-62
2023/05/08 10:23:21;;;;;;;11.40;4.55;;;;;;;;;;5029828;28;20029;-65
2023/05/08 10:25:47;;;;;;;12.55;5.28;;;;;;;;;;5032459;28;20036;-62
2023/05/08 10:28:21;;;;;;;15.15;5.18;;;;;;;;;;5033561;28;20009;-64
2023/05/08 10:30:47;;;;;;;13.63;4.07;;;;;;;;;;5032932;28;20087;-64
2023/05/08 10:33:14;;;;;;;5.93;3.80;;;;;;;;;;5032857;28;20025;-63
2023/05/08 10:35:39;;;;;;;11.43;4.45;;;;;;;;;;5032803;28;20017;-64
2023/05/08 10:38:07;;;;;;;11.70;3.53;;;;;;;;;;5032118;28;20068;-65
2023/05/08 10:40:32;;;;;;;8.70;3.88;;;;;;;;;;5032849;28;20459;-64
2023/05/08 10:42:58;;;;;;;8.35;4.30;;;;;;;;;;5031206;28;20041;-61
2023/05/08 10:45:23;;;;;;;14.60;4.47;;;;;;;;;;5031987;28;20092;-65
2023/05/08 10:48:07;;;;;;;11.30;4.28;;;;;;;;;;5031097;28;20034;-63
2023/05/08 10:50:37;;;;;;;8.68;3.80;;;;;;;;;;5028751;28;20494;-64
2023/05/08 10:53:08;;;;;;;9.85;3.88;;;;;;;;;;5030606;28;20022;-64
2023/05/08 10:55:38;;;;;;;13.80;4.13;;;;;;;;;;5019196;28;20057;-63
2023/05/08 10:58:14;;;;;;;9.35;3.75;;;;;;;;;;5031829;28;20441;-64
2023/05/08 11:00:48;;;;;;;6.25;3.00;;;;;;;;;;5031968;28;20391;-65
2023/05/08 11:03:15;;;;;;;6.82;3.58;;;;;;;;;;5031968;28;20016;-66
2023/05/08 11:05:45;;;;;;;7.57;3.15;;;;;;;;;;5031924;28;20021;-65
2023/05/08 11:08:13;;;;;;;8.40;3.80;;;;;;;;;;5031267;28;20014;-65
2023/05/08 11:10:39;;;;;;;5.57;3.20;;;;;;;;;;5031783;28;20587;-64
2023/05/08 11:13:06;;;;;;;10.63;3.17;;;;;;;;;;5032086;28;20028;-62
2023/05/08 11:15:41;;;;;;;8.13;3.45;;;;;;;;;;5032556;28;20036;-65
2023/05/08 11:18:08;;;;;;;8.02;3.15;;;;;;;;;;5032313;28;20522;-62
2023/05/08 11:20:39;;;;;;;8.85;2.80;;;;;;;;;;5031775;28;20453;-66
2023/05/08 11:23:25;;;;;;;19.73;3.53;;;;;;;;;;5031622;28;20045;-61
2023/05/08 11:26:01;;;;;;;8.57;2.75;;;;;;;;;;5026965;28;20029;-64
2023/05/08 11:28:26;;;;;;;6.85;2.63;;;;;;;;;;5032136;28;20491;-63
2023/05/08 11:30:53;;;;;;;5.55;2.80;;;;;;;;;;5031599;28;20029;-63
2023/05/08 11:33:19;;;;;;;8.68;2.95;;;;;;;;;;5031747;28;20380;-64
2023/05/08 11:35:46;;;;;;;6.75;2.60;;;;;;;;;;5030795;28;20013;-65
2023/05/08 11:38:31;;;;;;;5.82;2.65;;;;;;;;;;5031628;28;20022;-64
2023/05/08 11:41:15;;;;;;;11.00;2.55;;;;;;;;;;5031652;28;20028;-65
2023/05/08 11:43:49;;;;;;;3.40;2.03;;;;;;;;;;5031128;28;20018;-64
2023/05/08 11:46:16;;;;;;;4.13;2.22;;;;;;;;;;5031197;28;20163;-61
2023/05/08 11:48:41;;;;;;;5.07;2.67;;;;;;;;;;5028717;28;20412;-65
2023/05/08 11:51:07;;;;;;;3.42;1.83;;;;;;;;;;5031060;28;20107;-63
2023/05/08 11:53:32;;;;;;;14.43;2.22;;;;;;;;;;5029184;28;20021;-65
2023/05/08 11:55:58;;;;;;;5.47;2.30;;;;;;;;;;5031283;28;20037;-63
2023/05/08 11:58:23;;;;;;;5.80;2.42;;;;;;;;;;5030996;28;20032;-65
2023/05/08 12:00:49;;;;;;;5.35;2.63;;;;;;;;;;5028089;28;20108;-66
2023/05/08 12:03:15;;;;;;;6.43;2.10;;;;;;;;;;5023928;28;20132;-62
2023/05/08 12:05:41;;;;;;;7.30;2.22;;;;;;;;;;5030690;28;20022;-65
2023/05/08 12:08:06;;;;;;;6.70;2.00;;;;;;;;;;5030933;28;20092;-62
2023/05/08 12:10:32;;;;;;;4.57;2.15;;;;;;;;;;5030404;28;20104;-64
2023/05/08 12:12:57;;;;;;;8.85;1.88;;;;;;;;;;5030652;28;20087;-63
2023/05/08 12:15:22;;;;;;;6.47;2.00;;;;;;;;;;5030454;28;20075;-64
2023/05/08 12:17:48;;;;;;;3.58;1.63;;;;;;;;;;5030735;28;20028;-62
2023/05/08 12:20:14;;;;;;;6.80;1.95;;;;;;;;;;5030923;28;20471;-65
2023/05/08 12:22:40;;;;;;;5.13;1.73;;;;;;;;;;5030314;28;20025;-66
2023/05/08 12:25:06;;;;;;;8.35;2.10;;;;;;;;;;5031037;28;20022;-62
2023/05/08 12:27:31;;;;;;;3.33;1.75;;;;;;;;;;5030855;28;20017;-63
2023/05/08 12:29:56;;;;;;;3.53;1.42;;;;;;;;;;5031158;28;20430;-64
2023/05/08 12:32:22;;;;;;;9.10;1.83;;;;;;;;;;5030664;28;20510;-62
2023/05/08 12:34:47;;;;;;;13.13;2.05;;;;;;;;;;5030127;28;20426;-63
2023/05/08 12:37:22;;;;;;;6.03;1.70;;;;;;;;;;5029619;28;20076;-63
2023/05/08 12:39:47;;;;;;;6.43;1.60;;;;;;;;;;5029423;28;20025;-60
2023/05/08 12:42:12;;;;;;;4.65;1.98;;;;;;;;;;5030476;28;20017;-63
2023/05/08 12:44:37;;;;;;;4.70;1.88;;;;;;;;;;5030611;28;20074;-63
2023/05/08 12:47:03;;;;;;;10.27;2.20;;;;;;;;;;5024888;28;20025;-62
2023/05/08 12:49:30;;;;;;;7.28;1.50;;;;;;;;;;5021441;28;20028;-63
2023/05/08 12:52:08;;;;;;;3.35;1.45;;;;;;;;;;5051364;22;20017;-65
2023/05/08 12:54:45;;;;;;;6.88;1.35;;;;;;;;;;5028359;28;20042;-69
2023/05/08 12:57:10;;;;;;;8.90;1.83;;;;;;;;;;5029690;28;20037;-71
2023/05/08 12:59:35;;;;;;;23.60;2.92;;;;;;;;;;5028465;28;20119;-68
2023/05/08 13:02:00;;;;;;;7.75;1.60;;;;;;;;;;5028721;28;20093;-69
2023/05/08 13:04:26;;;;;;;4.82;1.63;;;;;;;;;;5018906;28;20029;-69
2023/05/08 13:06:54;;;;;;;14.55;1.70;;;;;;;;;;5029324;28;20124;-68
2023/05/08 13:09:20;;;;;;;3.17;1.52;;;;;;;;;;5015218;28;20029;-69
2023/05/08 13:11:45;;;;;;;9.50;1.60;;;;;;;;;;5021970;28;20628;-68
2023/05/08 13:14:11;;;;;;;6.80;1.38;;;;;;;;;;5015750;28;20105;-71
2023/05/08 13:16:46;;;;;;;2.58;1.40;;;;;;;;;;5029188;28;20021;-70
2023/05/08 13:19:13;;;;;;;4.32;1.30;;;;;;;;;;5029872;28;20017;-70
2023/05/08 13:21:38;;;;;;;6.63;1.42;;;;;;;;;;5027945;28;20058;-69
2023/05/08 13:24:04;;;;;;;3.50;1.80;;;;;;;;;;5029819;28;20017;-71
2023/05/08 13:26:29;;;;;;;5.63;1.30;;;;;;;;;;5028792;28;20029;-69
2023/05/08 13:28:54;;;;;;;15.95;1.75;;;;;;;;;;5028998;28;20080;-71
2023/05/08 13:31:19;;;;;;;4.82;1.23;;;;;;;;;;5028772;28;20813;-71
2023/05/08 13:33:45;;;;;;;11.45;1.70;;;;;;;;;;5028590;28;20029;-70
2023/05/08 13:36:10;;;;;;;3.90;1.80;;;;;;;;;;5028483;28;20033;-69
2023/05/08 13:38:35;;;;;;;4.97;1.40;;;;;;;;;;5027875;28;20025;-69
2023/05/08 13:41:00;;;;;;;16.55;2.55;;;;;;;;;;5027971;28;20120;-70
2023/05/08 13:43:26;;;;;;;11.35;1.85;;;;;;;;;;5028303;28;20140;-69
2023/05/08 13:45:51;;;;;;;8.40;1.50;;;;;;;;;;5023303;28;20399;-72
2023/05/08 13:48:16;;;;;;;5.40;1.55;;;;;;;;;;5019696;28;20026;-71
2023/05/08 13:50:42;;;;;;;8.43;1.35;;;;;;;;;;5029331;28;20085;-73
2023/05/08 13:53:07;;;;;;;3.15;1.38;;;;;;;;;;5030781;28;20184;-68
2023/05/08 13:55:32;;;;;;;3.17;1.20;;;;;;;;;;5028722;28;20120;-71
2023/05/08 13:57:57;;;;;;;8.70;1.88;;;;;;;;;;5028697;28;20021;-68
2023/05/08 14:00:23;;;;;;;5.43;1.30;;;;;;;;;;5032044;28;20025;-69
2023/05/08 14:02:48;;;;;;;4.68;1.70;;;;;;;;;;5032016;28;20021;-68
2023/05/08 14:05:13;;;;;;;11.85;1.58;;;;;;;;;;5019795;28;20408;-67
2023/05/08 14:07:39;;;;;;;2.67;1.40;;;;;;;;;;5031461;28;20055;-67
2023/05/08 14:10:04;;;;;;;4.20;1.27;;;;;;;;;;5030926;28;20014;-69
2023/05/08 14:12:32;;;;;;;7.13;1.48;;;;;;;;;;5032304;28;20372;-70
2023/05/08 14:14:59;;;;;;;4.47;1.35;;;;;;;;;;5031770;28;20037;-70
2023/05/08 14:17:24;;;;;;;4.68;1.40;;;;;;;;;;5032448;28;20017;-68
2023/05/08 14:19:49;;;;;;;3.38;1.30;;;;;;;;;;5030771;28;20522;-67
2023/05/08 14:22:14;;;;;;;5.90;1.33;;;;;;;;;;5032414;28;20380;-70
2023/05/08 14:24:40;;;;;;;5.57;1.70;;;;;;;;;;5032340;28;20366;-70
2023/05/08 14:27:05;;;;;;;4.10;1.38;;;;;;;;;;5033738;28;20431;-63
2023/05/08 14:29:31;;;;;;;5.20;1.30;;;;;;;;;;5018458;28;20017;-71
2023/05/08 14:31:57;;;;;;;4.15;1.42;;;;;;;;;;5021306;28;20040;-68
2023/05/08 14:34:22;;;;;;;7.50;1.50;;;;;;;;;;5023308;28;20041;-68
2023/05/08 14:36:47;;;;;;;6.07;2.03;;;;;;;;;;5028343;28;20026;-66
2023/05/08 14:39:12;;;;;;;3.28;1.40;;;;;;;;;;5030915;28;20128;-70
2023/05/08 14:41:38;;;;;;;7.53;2.03;;;;;;;;;;5029449;28;20121;-67
2023/05/08 14:44:03;;;;;;;3.17;1.05;;;;;;;;;;5029418;28;20086;-67
2023/05/08 14:46:29;;;;;;;2.97;1.33;;;;;;;;;;5021767;28;20022;-67
2023/05/08 14:48:54;;;;;;;6.25;1.42;;;;;;;;;;5027794;28;20426;-66
2023/05/08 14:51:19;;;;;;;3.55;1.60;;;;;;;;;;5030809;28;20029;-67
2023/05/08 14:53:45;;;;;;;5.38;1.55;;;;;;;;;;5028157;28;20057;-65